EBBR

Brussels Airport

Brussels, Belgium
METAR EBBR 122120Z VRB02KT 9999 FEW039 00/M00 Q1023 NOSIG
Observed Flight Rules
Dec-12 @ 21:20 UTC (31 minutes ago) Visual Flight Rules
Wind Visibility Clouds
Variable at 2 knots 10,000+ meters
  • Few at 3,900' AGL
Temperatures Readings
Current 0°C / 32°F
Dewpoint 0°C / 32°F
Humidity 100%
Altimeter 30.21" Hg
Pressure 1023 hPa
Elevation 58
METAR EBBR 122120Z VRB02KT 9999 FEW039 00/M00 Q1023 NOSIG
Observed Flight Rules
Dec-12 @ 21:20 UTC
(31 minutes ago)
VFR
Wind Visibility
Variable at 2 knots 10,000+ meters
Clouds
  • Few at 3,900' AGL
Temperature Dewpoint
0°C / 32°F 0°C / 32°F
Humidity Altimeter Pressure
100% 30.21" Hg 1023 hPa